Las Vegas, Nevada
Current Conditions -  °F | °C
As of 12:56 PM on Thursday 27 Nov 2014 (Local Time) from KLAS Reporting Station
Broken Clouds Broken Clouds  
Wind Chill: 64°   Ceiling: 22000
Heat Index: 64°   Visibility: 10mi
Dew Point: 20°   Wind: 6mph
Humidity: 18%   Direction: 170°S
Pressure: 30.18"   Gusts: NA
Location:  36.17°N, 115.13°W
Report Text: KLAS 272056Z 17005KT 10SM BKN220 18/M07 A3018 RMK AO2 SLP213 T01781067 58029
Loading
Personal Weather Stations






























Interactive Weather Map New forecast layout! Learn more

10-Day Weather Forecast

Advertisements
Track Severe Weather on mobile